sensor_id;sensor_type;location;lat;lon;timestamp;temperature;humidity
71206;SHT31;58935;54.498;18.544;2023-11-21T00:00:56;2.86;68.81
71206;SHT31;58935;54.498;18.544;2023-11-21T00:03:23;2.85;68.49
71206;SHT31;58935;54.498;18.544;2023-11-21T00:05:49;2.85;68.62
71206;SHT31;58935;54.498;18.544;2023-11-21T00:08:14;2.86;68.81
71206;SHT31;58935;54.498;18.544;2023-11-21T00:10:39;2.85;68.60
71206;SHT31;58935;54.498;18.544;2023-11-21T00:13:05;2.86;68.59
71206;SHT31;58935;54.498;18.544;2023-11-21T00:15:30;2.89;68.40
71206;SHT31;58935;54.498;18.544;2023-11-21T00:17:56;2.91;68.47
71206;SHT31;58935;54.498;18.544;2023-11-21T00:20:21;2.94;68.51
71206;SHT31;58935;54.498;18.544;2023-11-21T00:22:46;2.95;67.52
71206;SHT31;58935;54.498;18.544;2023-11-21T00:25:15;2.94;67.52
71206;SHT31;58935;54.498;18.544;2023-11-21T00:27:42;2.95;67.34
71206;SHT31;58935;54.498;18.544;2023-11-21T00:30:08;2.94;67.31
71206;SHT31;58935;54.498;18.544;2023-11-21T00:32:36;2.92;67.10
71206;SHT31;58935;54.498;18.544;2023-11-21T00:35:02;2.91;67.50
71206;SHT31;58935;54.498;18.544;2023-11-21T00:37:28;2.93;67.61
71206;SHT31;58935;54.498;18.544;2023-11-21T00:39:53;2.95;67.68
71206;SHT31;58935;54.498;18.544;2023-11-21T00:42:19;2.98;67.98
71206;SHT31;58935;54.498;18.544;2023-11-21T00:44:46;3.03;67.92
71206;SHT31;58935;54.498;18.544;2023-11-21T00:47:12;3.04;67.70
71206;SHT31;58935;54.498;18.544;2023-11-21T00:49:37;3.05;67.60
71206;SHT31;58935;54.498;18.544;2023-11-21T00:52:04;3.03;67.12
71206;SHT31;58935;54.498;18.544;2023-11-21T00:54:30;3.03;67.63
71206;SHT31;58935;54.498;18.544;2023-11-21T00:56:55;3.05;67.84
71206;SHT31;58935;54.498;18.544;2023-11-21T00:59:21;3.07;67.84
71206;SHT31;58935;54.498;18.544;2023-11-21T01:01:48;3.07;67.53
71206;SHT31;58935;54.498;18.544;2023-11-21T01:04:16;3.08;67.82
71206;SHT31;58935;54.498;18.544;2023-11-21T01:06:41;3.12;68.07
71206;SHT31;58935;54.498;18.544;2023-11-21T01:09:06;3.13;67.65
71206;SHT31;58935;54.498;18.544;2023-11-21T01:11:34;3.14;67.51
71206;SHT31;58935;54.498;18.544;2023-11-21T01:14:02;3.14;67.50
71206;SHT31;58935;54.498;18.544;2023-11-21T01:16:29;3.16;67.63
71206;SHT31;58935;54.498;18.544;2023-11-21T01:18:55;3.15;67.74
71206;SHT31;58935;54.498;18.544;2023-11-21T01:21:20;3.17;68.16
71206;SHT31;58935;54.498;18.544;2023-11-21T01:23:45;3.18;68.08
71206;SHT31;58935;54.498;18.544;2023-11-21T01:26:12;3.17;67.49
71206;SHT31;58935;54.498;18.544;2023-11-21T01:28:38;3.14;67.23
71206;SHT31;58935;54.498;18.544;2023-11-21T01:31:03;3.13;67.66
71206;SHT31;58935;54.498;18.544;2023-11-21T01:33:31;3.13;67.90
71206;SHT31;58935;54.498;18.544;2023-11-21T01:35:59;3.14;68.05
71206;SHT31;58935;54.498;18.544;2023-11-21T01:38:25;3.13;67.62
71206;SHT31;58935;54.498;18.544;2023-11-21T01:40:53;3.13;67.08
71206;SHT31;58935;54.498;18.544;2023-11-21T01:43:20;3.10;66.48
71206;SHT31;58935;54.498;18.544;2023-11-21T01:45:46;3.08;66.85
71206;SHT31;58935;54.498;18.544;2023-11-21T01:48:11;3.07;67.11
71206;SHT31;58935;54.498;18.544;2023-11-21T01:50:38;3.08;67.08
71206;SHT31;58935;54.498;18.544;2023-11-21T01:53:06;3.07;66.56
71206;SHT31;58935;54.498;18.544;2023-11-21T01:55:31;3.07;66.49
71206;SHT31;58935;54.498;18.544;2023-11-21T01:57:58;3.05;65.77
71206;SHT31;58935;54.498;18.544;2023-11-21T02:00:24;3.03;65.99
71206;SHT31;58935;54.498;18.544;2023-11-21T02:02:53;3.02;66.02
71206;SHT31;58935;54.498;18.544;2023-11-21T02:05:19;3.01;66.08
71206;SHT31;58935;54.498;18.544;2023-11-21T02:07:46;3.02;66.26
71206;SHT31;58935;54.498;18.544;2023-11-21T02:10:14;3.03;65.91
71206;SHT31;58935;54.498;18.544;2023-11-21T02:12:40;3.03;65.83
71206;SHT31;58935;54.498;18.544;2023-11-21T02:15:10;3.01;65.81
71206;SHT31;58935;54.498;18.544;2023-11-21T02:17:41;2.96;65.25
71206;SHT31;58935;54.498;18.544;2023-11-21T02:20:09;2.96;65.68
71206;SHT31;58935;54.498;18.544;2023-11-21T02:22:40;2.95;65.80
71206;SHT31;58935;54.498;18.544;2023-11-21T02:25:07;2.94;65.94
71206;SHT31;58935;54.498;18.544;2023-11-21T02:27:33;2.93;65.73
71206;SHT31;58935;54.498;18.544;2023-11-21T02:29:58;2.92;65.62
71206;SHT31;58935;54.498;18.544;2023-11-21T02:32:26;2.91;65.76
71206;SHT31;58935;54.498;18.544;2023-11-21T02:34:51;2.92;66.33
71206;SHT31;58935;54.498;18.544;2023-11-21T02:37:16;2.94;66.09
71206;SHT31;58935;54.498;18.544;2023-11-21T02:39:42;2.95;65.96
71206;SHT31;58935;54.498;18.544;2023-11-21T02:42:08;2.95;65.74
71206;SHT31;58935;54.498;18.544;2023-11-21T02:44:33;2.94;65.84
71206;SHT31;58935;54.498;18.544;2023-11-21T02:46:59;2.94;65.96
71206;SHT31;58935;54.498;18.544;2023-11-21T02:49:25;2.92;65.67
71206;SHT31;58935;54.498;18.544;2023-11-21T02:51:53;2.90;66.28
71206;SHT31;58935;54.498;18.544;2023-11-21T02:54:21;2.92;66.56
71206;SHT31;58935;54.498;18.544;2023-11-21T02:56:49;2.92;66.56
71206;SHT31;58935;54.498;18.544;2023-11-21T02:59:14;2.93;66.68
71206;SHT31;58935;54.498;18.544;2023-11-21T03:01:40;2.92;66.90
71206;SHT31;58935;54.498;18.544;2023-11-21T03:04:08;2.91;66.63
71206;SHT31;58935;54.498;18.544;2023-11-21T03:06:33;2.89;66.71
71206;SHT31;58935;54.498;18.544;2023-11-21T03:08:59;2.87;66.72
71206;SHT31;58935;54.498;18.544;2023-11-21T03:11:24;2.88;67.27
71206;SHT31;58935;54.498;18.544;2023-11-21T03:13:50;2.90;67.28
71206;SHT31;58935;54.498;18.544;2023-11-21T03:16:15;2.90;67.06
71206;SHT31;58935;54.498;18.544;2023-11-21T03:18:41;2.89;67.02
71206;SHT31;58935;54.498;18.544;2023-11-21T03:21:09;2.89;66.89
71206;SHT31;58935;54.498;18.544;2023-11-21T03:23:35;2.88;66.58
71206;SHT31;58935;54.498;18.544;2023-11-21T03:26:01;2.88;66.70
71206;SHT31;58935;54.498;18.544;2023-11-21T03:28:27;2.90;67.02
71206;SHT31;58935;54.498;18.544;2023-11-21T03:30:55;2.89;66.81
71206;SHT31;58935;54.498;18.544;2023-11-21T03:33:23;2.87;66.30
71206;SHT31;58935;54.498;18.544;2023-11-21T03:35:48;2.86;66.56
71206;SHT31;58935;54.498;18.544;2023-11-21T03:38:14;2.86;66.62
71206;SHT31;58935;54.498;18.544;2023-11-21T03:40:40;2.84;66.12
71206;SHT31;58935;54.498;18.544;2023-11-21T03:43:09;2.81;66.14
71206;SHT31;58935;54.498;18.544;2023-11-21T03:45:34;2.78;66.39
71206;SHT31;58935;54.498;18.544;2023-11-21T03:47:59;2.78;66.52
71206;SHT31;58935;54.498;18.544;2023-11-21T03:50:27;2.79;66.17
71206;SHT31;58935;54.498;18.544;2023-11-21T03:52:54;2.77;65.66
71206;SHT31;58935;54.498;18.544;2023-11-21T03:55:19;2.74;65.75
71206;SHT31;58935;54.498;18.544;2023-11-21T03:57:50;2.70;65.72
71206;SHT31;58935;54.498;18.544;2023-11-21T04:00:17;2.67;65.68
71206;SHT31;58935;54.498;18.544;2023-11-21T04:02:42;2.69;66.21
71206;SHT31;58935;54.498;18.544;2023-11-21T04:05:08;2.70;66.49
71206;SHT31;58935;54.498;18.544;2023-11-21T04:07:35;2.72;66.70
71206;SHT31;58935;54.498;18.544;2023-11-21T04:10:03;2.71;66.38
71206;SHT31;58935;54.498;18.544;2023-11-21T04:12:34;2.73;66.83
71206;SHT31;58935;54.498;18.544;2023-11-21T04:15:01;2.76;67.08
71206;SHT31;58935;54.498;18.544;2023-11-21T04:17:26;2.78;67.07
71206;SHT31;58935;54.498;18.544;2023-11-21T04:19:52;2.77;66.91
71206;SHT31;58935;54.498;18.544;2023-11-21T04:22:17;2.75;66.32
71206;SHT31;58935;54.498;18.544;2023-11-21T04:24:42;2.71;65.80
71206;SHT31;58935;54.498;18.544;2023-11-21T04:27:08;2.65;65.86
71206;SHT31;58935;54.498;18.544;2023-11-21T04:29:33;2.61;66.25
71206;SHT31;58935;54.498;18.544;2023-11-21T04:31:59;2.59;66.81
71206;SHT31;58935;54.498;18.544;2023-11-21T04:34:26;2.58;66.94
71206;SHT31;58935;54.498;18.544;2023-11-21T04:36:51;2.57;66.92
71206;SHT31;58935;54.498;18.544;2023-11-21T04:39:16;2.57;66.42
71206;SHT31;58935;54.498;18.544;2023-11-21T04:41:42;2.54;65.89
71206;SHT31;58935;54.498;18.544;2023-11-21T04:44:09;2.53;66.36
71206;SHT31;58935;54.498;18.544;2023-11-21T04:46:35;2.52;65.88
71206;SHT31;58935;54.498;18.544;2023-11-21T04:49:02;2.50;66.44
71206;SHT31;58935;54.498;18.544;2023-11-21T04:51:30;2.51;66.99
71206;SHT31;58935;54.498;18.544;2023-11-21T04:53:57;2.51;66.92
71206;SHT31;58935;54.498;18.544;2023-11-21T04:56:25;2.53;67.22
71206;SHT31;58935;54.498;18.544;2023-11-21T04:58:50;2.54;66.88
71206;SHT31;58935;54.498;18.544;2023-11-21T05:01:15;2.53;66.69
71206;SHT31;58935;54.498;18.544;2023-11-21T05:03:41;2.51;66.65
71206;SHT31;58935;54.498;18.544;2023-11-21T05:06:10;2.50;66.82
71206;SHT31;58935;54.498;18.544;2023-11-21T05:08:37;2.48;66.48
71206;SHT31;58935;54.498;18.544;2023-11-21T05:11:03;2.48;67.02
71206;SHT31;58935;54.498;18.544;2023-11-21T05:13:28;2.50;67.23
71206;SHT31;58935;54.498;18.544;2023-11-21T05:15:56;2.48;66.71
71206;SHT31;58935;54.498;18.544;2023-11-21T05:18:22;2.43;66.76
71206;SHT31;58935;54.498;18.544;2023-11-21T05:20:48;2.40;67.24
71206;SHT31;58935;54.498;18.544;2023-11-21T05:23:15;2.41;67.40
71206;SHT31;58935;54.498;18.544;2023-11-21T05:25:43;2.39;67.00
71206;SHT31;58935;54.498;18.544;2023-11-21T05:28:08;2.38;66.92
71206;SHT31;58935;54.498;18.544;2023-11-21T05:30:34;2.36;67.25
71206;SHT31;58935;54.498;18.544;2023-11-21T05:32:59;2.33;66.76
71206;SHT31;58935;54.498;18.544;2023-11-21T05:35:24;2.30;66.12
71206;SHT31;58935;54.498;18.544;2023-11-21T05:37:50;2.27;66.45
71206;SHT31;58935;54.498;18.544;2023-11-21T05:40:17;2.25;66.98
71206;SHT31;58935;54.498;18.544;2023-11-21T05:42:43;2.24;67.63
71206;SHT31;58935;54.498;18.544;2023-11-21T05:45:11;2.20;67.62
71206;SHT31;58935;54.498;18.544;2023-11-21T05:47:40;2.19;67.91
71206;SHT31;58935;54.498;18.544;2023-11-21T05:50:08;2.18;68.45
71206;SHT31;58935;54.498;18.544;2023-11-21T05:52:39;2.16;68.29
71206;SHT31;58935;54.498;18.544;2023-11-21T05:55:06;2.14;68.72
71206;SHT31;58935;54.498;18.544;2023-11-21T05:57:35;2.15;69.38
71206;SHT31;58935;54.498;18.544;2023-11-21T06:00:06;2.16;69.47
71206;SHT31;58935;54.498;18.544;2023-11-21T06:02:37;2.17;68.79
71206;SHT31;58935;54.498;18.544;2023-11-21T06:05:06;2.15;67.72
71206;SHT31;58935;54.498;18.544;2023-11-21T06:07:35;2.13;68.59
71206;SHT31;58935;54.498;18.544;2023-11-21T06:10:02;2.12;69.00
71206;SHT31;58935;54.498;18.544;2023-11-21T06:12:31;2.10;68.48
71206;SHT31;58935;54.498;18.544;2023-11-21T06:15:00;2.09;68.42
71206;SHT31;58935;54.498;18.544;2023-11-21T06:17:30;2.09;68.45
71206;SHT31;58935;54.498;18.544;2023-11-21T06:19:55;2.08;68.63
71206;SHT31;58935;54.498;18.544;2023-11-21T06:22:21;2.09;68.79
71206;SHT31;58935;54.498;18.544;2023-11-21T06:24:49;2.10;68.99
71206;SHT31;58935;54.498;18.544;2023-11-21T06:27:14;2.12;69.60
71206;SHT31;58935;54.498;18.544;2023-11-21T06:29:41;2.11;69.98
71206;SHT31;58935;54.498;18.544;2023-11-21T06:32:07;2.09;69.62
71206;SHT31;58935;54.498;18.544;2023-11-21T06:34:33;2.07;69.33
71206;SHT31;58935;54.498;18.544;2023-11-21T06:36:59;2.05;68.79
71206;SHT31;58935;54.498;18.544;2023-11-21T06:39:24;2.03;68.68
71206;SHT31;58935;54.498;18.544;2023-11-21T06:41:49;2.03;69.00
71206;SHT31;58935;54.498;18.544;2023-11-21T06:44:15;2.05;69.41
71206;SHT31;58935;54.498;18.544;2023-11-21T06:46:40;2.08;69.43
71206;SHT31;58935;54.498;18.544;2023-11-21T06:49:07;2.12;69.59
71206;SHT31;58935;54.498;18.544;2023-11-21T06:51:33;2.14;69.76
71206;SHT31;58935;54.498;18.544;2023-11-21T06:54:01;2.16;69.81
71206;SHT31;58935;54.498;18.544;2023-11-21T06:56:29;2.15;69.50
71206;SHT31;58935;54.498;18.544;2023-11-21T06:58:54;2.17;69.71
71206;SHT31;58935;54.498;18.544;2023-11-21T07:01:19;2.17;70.06
71206;SHT31;58935;54.498;18.544;2023-11-21T07:03:45;2.13;69.49
71206;SHT31;58935;54.498;18.544;2023-11-21T07:06:10;2.11;69.09
71206;SHT31;58935;54.498;18.544;2023-11-21T07:08:38;2.08;68.48
71206;SHT31;58935;54.498;18.544;2023-11-21T07:11:04;2.07;68.86
71206;SHT31;58935;54.498;18.544;2023-11-21T07:13:30;2.08;69.27
71206;SHT31;58935;54.498;18.544;2023-11-21T07:15:59;2.10;69.16
71206;SHT31;58935;54.498;18.544;2023-11-21T07:18:27;2.13;68.66
71206;SHT31;58935;54.498;18.544;2023-11-21T07:20:52;2.13;68.17
71206;SHT31;58935;54.498;18.544;2023-11-21T07:23:18;2.11;67.19
71206;SHT31;58935;54.498;18.544;2023-11-21T07:25:46;2.09;67.20
71206;SHT31;58935;54.498;18.544;2023-11-21T07:28:12;2.07;66.61
71206;SHT31;58935;54.498;18.544;2023-11-21T07:30:37;2.06;67.31
71206;SHT31;58935;54.498;18.544;2023-11-21T07:33:02;2.06;67.19
71206;SHT31;58935;54.498;18.544;2023-11-21T07:35:28;2.08;67.59
71206;SHT31;58935;54.498;18.544;2023-11-21T07:37:56;2.10;67.93
71206;SHT31;58935;54.498;18.544;2023-11-21T07:40:22;2.13;68.22
71206;SHT31;58935;54.498;18.544;2023-11-21T07:42:47;2.16;68.61
71206;SHT31;58935;54.498;18.544;2023-11-21T07:45:16;2.19;69.06
71206;SHT31;58935;54.498;18.544;2023-11-21T07:47:41;2.22;67.35
71206;SHT31;58935;54.498;18.544;2023-11-21T07:50:07;2.22;67.08
71206;SHT31;58935;54.498;18.544;2023-11-21T07:52:33;2.22;67.24
71206;SHT31;58935;54.498;18.544;2023-11-21T07:54:58;2.25;67.52
71206;SHT31;58935;54.498;18.544;2023-11-21T07:57:26;2.30;67.12
71206;SHT31;58935;54.498;18.544;2023-11-21T07:59:52;2.32;67.13
71206;SHT31;58935;54.498;18.544;2023-11-21T08:02:19;2.35;67.47
71206;SHT31;58935;54.498;18.544;2023-11-21T08:04:46;2.38;66.96
71206;SHT31;58935;54.498;18.544;2023-11-21T08:07:14;2.41;66.89
71206;SHT31;58935;54.498;18.544;2023-11-21T08:09:41;2.45;66.54
71206;SHT31;58935;54.498;18.544;2023-11-21T08:12:07;2.47;65.35
71206;SHT31;58935;54.498;18.544;2023-11-21T08:14:32;2.52;65.70
71206;SHT31;58935;54.498;18.544;2023-11-21T08:16:58;2.54;65.92
71206;SHT31;58935;54.498;18.544;2023-11-21T08:19:24;2.57;65.84
71206;SHT31;58935;54.498;18.544;2023-11-21T08:21:50;2.62;65.79
71206;SHT31;58935;54.498;18.544;2023-11-21T08:24:19;2.68;65.38
71206;SHT31;58935;54.498;18.544;2023-11-21T08:26:45;2.73;65.25
71206;SHT31;58935;54.498;18.544;2023-11-21T08:29:10;2.75;64.20
71206;SHT31;58935;54.498;18.544;2023-11-21T08:31:36;2.80;64.36
71206;SHT31;58935;54.498;18.544;2023-11-21T08:34:02;2.87;64.32
71206;SHT31;58935;54.498;18.544;2023-11-21T08:36:28;2.93;64.19
71206;SHT31;58935;54.498;18.544;2023-11-21T08:38:58;2.97;63.16
71206;SHT31;58935;54.498;18.544;2023-11-21T08:41:24;2.98;62.09
71206;SHT31;58935;54.498;18.544;2023-11-21T08:43:50;2.99;61.65
71206;SHT31;58935;54.498;18.544;2023-11-21T08:46:16;2.99;60.90
71206;SHT31;58935;54.498;18.544;2023-11-21T08:48:43;3.04;61.14
71206;SHT31;58935;54.498;18.544;2023-11-21T08:51:09;3.08;60.71
71206;SHT31;58935;54.498;18.544;2023-11-21T08:53:36;3.10;58.90
71206;SHT31;58935;54.498;18.544;2023-11-21T08:56:02;3.13;59.00
71206;SHT31;58935;54.498;18.544;2023-11-21T08:58:29;3.14;57.46
71206;SHT31;58935;54.498;18.544;2023-11-21T09:00:57;3.13;56.65
71206;SHT31;58935;54.498;18.544;2023-11-21T09:03:22;3.14;56.60
71206;SHT31;58935;54.498;18.544;2023-11-21T09:05:48;3.14;57.65
71206;SHT31;58935;54.498;18.544;2023-11-21T09:08:13;3.14;56.44
71206;SHT31;58935;54.498;18.544;2023-11-21T09:10:39;3.15;56.41
71206;SHT31;58935;54.498;18.544;2023-11-21T09:13:07;3.16;57.32
71206;SHT31;58935;54.498;18.544;2023-11-21T09:15:34;3.16;57.63
71206;SHT31;58935;54.498;18.544;2023-11-21T09:18:00;3.18;57.71
71206;SHT31;58935;54.498;18.544;2023-11-21T09:20:26;3.21;58.11
71206;SHT31;58935;54.498;18.544;2023-11-21T09:22:52;3.23;58.29
71206;SHT31;58935;54.498;18.544;2023-11-21T09:25:17;3.25;58.23
71206;SHT31;58935;54.498;18.544;2023-11-21T09:27:44;3.31;58.79
71206;SHT31;58935;54.498;18.544;2023-11-21T09:30:12;3.35;58.63
71206;SHT31;58935;54.498;18.544;2023-11-21T09:32:39;3.32;58.12
71206;SHT31;58935;54.498;18.544;2023-11-21T09:35:05;3.30;58.15
71206;SHT31;58935;54.498;18.544;2023-11-21T09:37:33;3.31;58.73
71206;SHT31;58935;54.498;18.544;2023-11-21T09:39:59;3.32;57.74
71206;SHT31;58935;54.498;18.544;2023-11-21T09:42:28;3.32;57.82
71206;SHT31;58935;54.498;18.544;2023-11-21T09:45:01;3.34;57.77
71206;SHT31;58935;54.498;18.544;2023-11-21T09:47:30;3.35;58.00
71206;SHT31;58935;54.498;18.544;2023-11-21T09:49:58;3.39;58.72
71206;SHT31;58935;54.498;18.544;2023-11-21T09:52:28;3.43;58.30
71206;SHT31;58935;54.498;18.544;2023-11-21T09:54:54;3.44;57.79
71206;SHT31;58935;54.498;18.544;2023-11-21T09:57:23;3.46;57.90
71206;SHT31;58935;54.498;18.544;2023-11-21T09:59:51;3.49;57.63
71206;SHT31;58935;54.498;18.544;2023-11-21T10:02:20;3.49;57.22
71206;SHT31;58935;54.498;18.544;2023-11-21T10:04:53;3.48;57.30
71206;SHT31;58935;54.498;18.544;2023-11-21T10:07:20;3.48;57.91
71206;SHT31;58935;54.498;18.544;2023-11-21T10:09:45;3.51;58.32
71206;SHT31;58935;54.498;18.544;2023-11-21T10:12:11;3.54;58.53
71206;SHT31;58935;54.498;18.544;2023-11-21T10:14:40;3.57;58.67
71206;SHT31;58935;54.498;18.544;2023-11-21T10:17:10;3.59;57.76
71206;SHT31;58935;54.498;18.544;2023-11-21T10:19:38;3.58;57.92
71206;SHT31;58935;54.498;18.544;2023-11-21T10:22:05;3.61;58.66
71206;SHT31;58935;54.498;18.544;2023-11-21T10:24:33;3.64;58.80
71206;SHT31;58935;54.498;18.544;2023-11-21T10:26:59;3.62;57.90
71206;SHT31;58935;54.498;18.544;2023-11-21T10:29:28;3.61;58.58
71206;SHT31;58935;54.498;18.544;2023-11-21T10:31:55;3.58;58.27
71206;SHT31;58935;54.498;18.544;2023-11-21T10:34:23;3.52;57.40
71206;SHT31;58935;54.498;18.544;2023-11-21T10:36:52;3.48;57.97
71206;SHT31;58935;54.498;18.544;2023-11-21T10:39:19;3.45;58.22
71206;SHT31;58935;54.498;18.544;2023-11-21T10:41:48;3.42;58.55
71206;SHT31;58935;54.498;18.544;2023-11-21T10:44:15;3.40;59.16
71206;SHT31;58935;54.498;18.544;2023-11-21T10:46:44;3.38;58.47
71206;SHT31;58935;54.498;18.544;2023-11-21T10:49:10;3.33;57.79
71206;SHT31;58935;54.498;18.544;2023-11-21T10:51:38;3.28;57.40
71206;SHT31;58935;54.498;18.544;2023-11-21T10:54:12;3.25;58.13
71206;SHT31;58935;54.498;18.544;2023-11-21T10:56:39;3.22;58.31
71206;SHT31;58935;54.498;18.544;2023-11-21T10:59:09;3.21;58.32
71206;SHT31;58935;54.498;18.544;2023-11-21T11:01:43;3.20;58.37
71206;SHT31;58935;54.498;18.544;2023-11-21T11:04:10;3.16;57.84
71206;SHT31;58935;54.498;18.544;2023-11-21T11:06:43;3.17;57.85
71206;SHT31;58935;54.498;18.544;2023-11-21T11:09:10;3.19;58.36
71206;SHT31;58935;54.498;18.544;2023-11-21T11:11:39;3.22;57.89
71206;SHT31;58935;54.498;18.544;2023-11-21T11:14:07;3.23;57.35
71206;SHT31;58935;54.498;18.544;2023-11-21T11:16:36;3.21;57.70
71206;SHT31;58935;54.498;18.544;2023-11-21T11:19:04;3.20;56.95
71206;SHT31;58935;54.498;18.544;2023-11-21T11:26:55;3.14;56.76
71206;SHT31;58935;54.498;18.544;2023-11-21T11:29:41;3.14;57.06
71206;SHT31;58935;54.498;18.544;2023-11-21T11:37:19;3.23;56.41
71206;SHT31;58935;54.498;18.544;2023-11-21T11:39:48;3.18;56.14
71206;SHT31;58935;54.498;18.544;2023-11-21T11:42:15;3.15;56.72
71206;SHT31;58935;54.498;18.544;2023-11-21T11:44:46;3.14;57.23
71206;SHT31;58935;54.498;18.544;2023-11-21T11:47:19;3.17;57.43
71206;SHT31;58935;54.498;18.544;2023-11-21T11:54:48;3.13;57.52
71206;SHT31;58935;54.498;18.544;2023-11-21T11:57:17;3.14;57.67
71206;SHT31;58935;54.498;18.544;2023-11-21T12:02:30;3.23;58.15
71206;SHT31;58935;54.498;18.544;2023-11-21T12:04:56;3.26;57.56
71206;SHT31;58935;54.498;18.544;2023-11-21T12:07:22;3.26;56.93
71206;SHT31;58935;54.498;18.544;2023-11-21T12:09:48;3.23;57.26
71206;SHT31;58935;54.498;18.544;2023-11-21T12:12:16;3.23;57.07
71206;SHT31;58935;54.498;18.544;2023-11-21T12:14:44;3.21;56.17
71206;SHT31;58935;54.498;18.544;2023-11-21T12:17:10;3.20;56.02
71206;SHT31;58935;54.498;18.544;2023-11-21T12:19:35;3.18;56.62
71206;SHT31;58935;54.498;18.544;2023-11-21T12:22:01;3.18;56.51
71206;SHT31;58935;54.498;18.544;2023-11-21T12:24:27;3.22;56.56
71206;SHT31;58935;54.498;18.544;2023-11-21T12:26:54;3.25;56.48
71206;SHT31;58935;54.498;18.544;2023-11-21T12:29:19;3.29;56.77
71206;SHT31;58935;54.498;18.544;2023-11-21T12:31:45;3.33;57.71
71206;SHT31;58935;54.498;18.544;2023-11-21T12:34:11;3.34;57.58
71206;SHT31;58935;54.498;18.544;2023-11-21T12:36:36;3.35;57.31
71206;SHT31;58935;54.498;18.544;2023-11-21T12:39:02;3.39;58.12
71206;SHT31;58935;54.498;18.544;2023-11-21T12:41:30;3.43;58.27
71206;SHT31;58935;54.498;18.544;2023-11-21T12:43:56;3.48;58.71
71206;SHT31;58935;54.498;18.544;2023-11-21T12:46:22;3.54;58.77
71206;SHT31;58935;54.498;18.544;2023-11-21T12:48:48;3.55;58.97
71206;SHT31;58935;54.498;18.544;2023-11-21T12:51:14;3.52;59.19
71206;SHT31;58935;54.498;18.544;2023-11-21T12:53:41;3.50;59.42
71206;SHT31;58935;54.498;18.544;2023-11-21T12:56:09;3.49;59.16
71206;SHT31;58935;54.498;18.544;2023-11-21T12:58:38;3.52;59.81
71206;SHT31;58935;54.498;18.544;2023-11-21T13:01:09;3.57;60.17
71206;SHT31;58935;54.498;18.544;2023-11-21T13:03:37;3.63;59.55
71206;SHT31;58935;54.498;18.544;2023-11-21T13:08:39;3.68;59.42
71206;SHT31;58935;54.498;18.544;2023-11-21T13:23:55;3.73;62.41
71206;SHT31;58935;54.498;18.544;2023-11-21T13:26:23;3.73;63.11
71206;SHT31;58935;54.498;18.544;2023-11-21T13:28:50;3.72;60.92
71206;SHT31;58935;54.498;18.544;2023-11-21T13:31:18;3.67;59.18
71206;SHT31;58935;54.498;18.544;2023-11-21T13:33:50;3.63;59.92
71206;SHT31;58935;54.498;18.544;2023-11-21T13:36:21;3.59;60.39
71206;SHT31;58935;54.498;18.544;2023-11-21T13:38:49;3.57;60.84
71206;SHT31;58935;54.498;18.544;2023-11-21T13:41:15;3.55;61.13
71206;SHT31;58935;54.498;18.544;2023-11-21T13:43:42;3.53;60.28
71206;SHT31;58935;54.498;18.544;2023-11-21T13:46:18;3.47;59.76
71206;SHT31;58935;54.498;18.544;2023-11-21T13:48:47;3.44;59.92
71206;SHT31;58935;54.498;18.544;2023-11-21T13:51:18;3.42;59.95
71206;SHT31;58935;54.498;18.544;2023-11-21T13:53:47;3.42;61.19
71206;SHT31;58935;54.498;18.544;2023-11-21T13:56:15;3.46;62.05
71206;SHT31;58935;54.498;18.544;2023-11-21T13:58:47;3.48;62.43
71206;SHT31;58935;54.498;18.544;2023-11-21T14:01:16;3.48;62.08
71206;SHT31;58935;54.498;18.544;2023-11-21T14:03:45;3.46;61.79
71206;SHT31;58935;54.498;18.544;2023-11-21T14:06:17;3.44;61.67
71206;SHT31;58935;54.498;18.544;2023-11-21T14:08:49;3.42;61.91
71206;SHT31;58935;54.498;18.544;2023-11-21T14:11:18;3.42;62.68
71206;SHT31;58935;54.498;18.544;2023-11-21T14:13:45;3.42;62.96
71206;SHT31;58935;54.498;18.544;2023-11-21T14:16:13;3.42;62.96
71206;SHT31;58935;54.498;18.544;2023-11-21T14:18:42;3.43;62.84
71206;SHT31;58935;54.498;18.544;2023-11-21T14:21:19;3.42;62.51
71206;SHT31;58935;54.498;18.544;2023-11-21T14:23:49;3.41;62.79
71206;SHT31;58935;54.498;18.544;2023-11-21T14:26:14;3.38;62.62
71206;SHT31;58935;54.498;18.544;2023-11-21T14:28:43;3.34;62.45
71206;SHT31;58935;54.498;18.544;2023-11-21T14:31:08;3.32;63.01
71206;SHT31;58935;54.498;18.544;2023-11-21T14:33:39;3.30;63.45
71206;SHT31;58935;54.498;18.544;2023-11-21T14:36:07;3.28;63.02
71206;SHT31;58935;54.498;18.544;2023-11-21T14:38:36;3.25;62.98
71206;SHT31;58935;54.498;18.544;2023-11-21T14:41:04;3.22;63.58
71206;SHT31;58935;54.498;18.544;2023-11-21T14:43:33;3.19;63.81
71206;SHT31;58935;54.498;18.544;2023-11-21T14:46:00;3.16;64.82
71206;SHT31;58935;54.498;18.544;2023-11-21T14:48:27;3.12;65.57
71206;SHT31;58935;54.498;18.544;2023-11-21T14:51:07;3.06;65.68
71206;SHT31;58935;54.498;18.544;2023-11-21T14:53:36;2.98;65.30
71206;SHT31;58935;54.498;18.544;2023-11-21T14:56:05;2.90;65.32
71206;SHT31;58935;54.498;18.544;2023-11-21T14:58:35;2.82;65.30
71206;SHT31;58935;54.498;18.544;2023-11-21T15:01:02;2.75;64.52
71206;SHT31;58935;54.498;18.544;2023-11-21T15:03:29;2.69;64.76
71206;SHT31;58935;54.498;18.544;2023-11-21T15:05:56;2.64;65.22
71206;SHT31;58935;54.498;18.544;2023-11-21T15:08:24;2.61;65.73
71206;SHT31;58935;54.498;18.544;2023-11-21T15:10:56;2.56;65.33
71206;SHT31;58935;54.498;18.544;2023-11-21T15:13:22;2.49;63.98
71206;SHT31;58935;54.498;18.544;2023-11-21T15:15:50;2.41;63.89
71206;SHT31;58935;54.498;18.544;2023-11-21T15:18:15;2.38;64.04
71206;SHT31;58935;54.498;18.544;2023-11-21T15:20:43;2.37;64.01
71206;SHT31;58935;54.498;18.544;2023-11-21T15:23:11;2.38;65.01
71206;SHT31;58935;54.498;18.544;2023-11-21T15:25:37;2.39;66.02
71206;SHT31;58935;54.498;18.544;2023-11-21T15:28:03;2.41;65.23
71206;SHT31;58935;54.498;18.544;2023-11-21T15:30:32;2.42;65.79
71206;SHT31;58935;54.498;18.544;2023-11-21T15:32:58;2.43;66.68
71206;SHT31;58935;54.498;18.544;2023-11-21T15:35:28;2.43;67.18
71206;SHT31;58935;54.498;18.544;2023-11-21T15:37:54;2.44;66.91
71206;SHT31;58935;54.498;18.544;2023-11-21T15:40:23;2.44;65.89
71206;SHT31;58935;54.498;18.544;2023-11-21T15:42:48;2.40;66.14
71206;SHT31;58935;54.498;18.544;2023-11-21T15:45:14;2.33;64.44
71206;SHT31;58935;54.498;18.544;2023-11-21T15:47:43;2.22;63.41
71206;SHT31;58935;54.498;18.544;2023-11-21T15:50:09;2.15;63.82
71206;SHT31;58935;54.498;18.544;2023-11-21T15:52:37;2.09;64.47
71206;SHT31;58935;54.498;18.544;2023-11-21T15:55:05;2.04;64.30
71206;SHT31;58935;54.498;18.544;2023-11-21T15:57:31;2.01;64.49
71206;SHT31;58935;54.498;18.544;2023-11-21T15:59:57;1.97;64.75
71206;SHT31;58935;54.498;18.544;2023-11-21T16:02:22;1.96;65.63